createdAt,value
2022-12-11T00:00:50.235Z,66.4
2022-12-11T00:01:50.441Z,66.5
2022-12-11T00:02:50.446Z,66.5
2022-12-11T00:03:50.272Z,66.4
2022-12-11T00:04:50.280Z,66.2
2022-12-11T00:05:50.291Z,66.0
2022-12-11T00:06:50.302Z,66.0
2022-12-11T00:07:50.471Z,65.7
2022-12-11T00:08:50.326Z,65.8
2022-12-11T00:09:50.325Z,66.2
2022-12-11T00:10:50.369Z,65.8
2022-12-11T00:11:50.353Z,65.5
2022-12-11T00:12:50.359Z,65.3
2022-12-11T00:13:50.365Z,65.2
2022-12-11T00:14:50.379Z,65.0
2022-12-11T00:15:50.388Z,64.9
2022-12-11T00:16:50.683Z,65.0
2022-12-11T00:17:50.407Z,65.3
2022-12-11T00:18:50.404Z,66.5
2022-12-11T00:19:50.410Z,66.6
2022-12-11T00:20:50.423Z,66.8
2022-12-11T00:21:50.444Z,65.6
2022-12-11T00:22:50.449Z,65.5
2022-12-11T00:23:50.457Z,65.4
2022-12-11T00:24:50.473Z,65.6
2022-12-11T00:25:50.474Z,65.6
2022-12-11T00:26:50.481Z,65.5
2022-12-11T00:27:50.489Z,65.5
2022-12-11T00:28:50.493Z,65.6
2022-12-11T00:29:50.504Z,65.0
2022-12-11T00:30:50.520Z,64.8
2022-12-11T00:31:50.727Z,65.2
2022-12-11T00:32:50.542Z,65.3
2022-12-11T00:33:50.554Z,64.8
2022-12-11T00:34:50.559Z,65.2
2022-12-11T00:35:50.570Z,65.4
2022-12-11T00:36:50.587Z,65.2
2022-12-11T00:37:50.594Z,65.3
2022-12-11T00:38:50.601Z,65.4
2022-12-11T00:39:50.609Z,65.6
2022-12-11T00:40:50.609Z,65.6
2022-12-11T00:41:50.618Z,65.5
2022-12-11T00:42:50.624Z,65.5
2022-12-11T00:43:50.645Z,65.4
2022-12-11T00:44:50.752Z,65.4
2022-12-11T00:45:50.827Z,65.5
2022-12-11T00:46:50.661Z,65.4
2022-12-11T00:47:50.669Z,65.3
2022-12-11T00:48:50.679Z,65.0
2022-12-11T00:49:50.696Z,64.9
2022-12-11T00:50:50.700Z,65.2
2022-12-11T00:51:50.709Z,65.2
2022-12-11T00:52:50.724Z,65.1
2022-12-11T00:53:50.723Z,65.0
2022-12-11T00:54:50.726Z,65.1
2022-12-11T00:55:50.733Z,65.0
2022-12-11T00:56:50.744Z,65.0
2022-12-11T00:57:50.747Z,64.8
2022-12-11T00:58:50.800Z,64.4
2022-12-11T00:59:50.765Z,64.7
2022-12-11T01:00:50.788Z,65.0
2022-12-11T01:01:50.789Z,65.4
2022-12-11T01:02:50.964Z,65.7
2022-12-11T01:03:50.818Z,65.9
2022-12-11T01:04:50.821Z,65.9
2022-12-11T01:05:50.868Z,65.7
2022-12-11T01:06:50.841Z,65.7
2022-12-11T01:07:51.014Z,65.6
2022-12-11T01:08:50.858Z,65.4
2022-12-11T01:09:50.868Z,65.1
2022-12-11T01:10:51.157Z,64.9
2022-12-11T01:11:50.883Z,64.8
2022-12-11T01:12:50.890Z,64.7
2022-12-11T01:13:50.905Z,64.7
2022-12-11T01:14:50.914Z,64.8
2022-12-11T01:15:50.921Z,64.8
2022-12-11T01:33:51.473Z,65.5
2022-12-11T01:34:51.119Z,66.3
2022-12-11T01:35:51.126Z,66.4
2022-12-11T01:36:51.154Z,66.4
2022-12-11T01:37:51.138Z,66.4
2022-12-11T01:38:51.147Z,66.1
2022-12-11T01:39:51.159Z,66.1
2022-12-11T01:40:51.180Z,66.0
2022-12-11T01:41:51.185Z,66.0
2022-12-11T01:42:51.196Z,66.3
2022-12-11T01:43:51.205Z,66.3
2022-12-11T01:44:51.212Z,66.4
2022-12-11T01:45:51.382Z,66.7
2022-12-11T01:46:51.222Z,66.7
2022-12-11T01:47:51.235Z,66.7
2022-12-11T01:48:51.244Z,66.8
2022-12-11T01:49:51.248Z,66.8
2022-12-11T01:50:51.266Z,66.9
2022-12-11T01:51:51.265Z,67.0
2022-12-11T01:52:51.282Z,67.1
2022-12-11T01:53:51.291Z,67.2
2022-12-11T01:54:51.311Z,67.3
2022-12-11T01:55:51.358Z,67.3
2022-12-11T01:56:51.364Z,67.1
2022-12-11T01:57:51.370Z,66.9
2022-12-11T01:58:51.344Z,67.0
2022-12-11T01:59:51.364Z,67.0
2022-12-11T02:00:51.589Z,67.1
2022-12-11T02:01:51.377Z,66.9
2022-12-11T02:02:51.537Z,66.8
2022-12-11T02:03:51.400Z,66.8
2022-12-11T02:04:51.413Z,66.8
2022-12-11T02:05:51.430Z,67.0
2022-12-11T02:06:51.433Z,67.2
2022-12-11T02:07:51.677Z,67.5
2022-12-11T02:08:51.444Z,67.8
2022-12-11T02:09:51.449Z,67.9
2022-12-11T02:10:51.455Z,68.1
2022-12-11T02:11:51.461Z,67.9
2022-12-11T02:12:51.468Z,68.0
2022-12-11T02:13:51.483Z,68.1
2022-12-11T02:14:51.488Z,68.2
2022-12-11T02:15:51.491Z,68.6
2022-12-11T02:16:51.500Z,68.8
2022-12-11T02:17:51.515Z,69.0
2022-12-11T02:18:51.522Z,69.3
2022-12-11T02:19:51.534Z,69.6
2022-12-11T02:20:51.541Z,69.7
2022-12-11T02:21:51.555Z,70.0
2022-12-11T02:22:51.565Z,70.2
2022-12-11T02:23:51.579Z,70.4
2022-12-11T02:24:51.579Z,70.4
2022-12-11T02:25:51.593Z,70.4
2022-12-11T02:26:51.600Z,70.6
2022-12-11T02:27:51.604Z,70.5
2022-12-11T02:28:51.613Z,70.7
2022-12-11T02:29:51.619Z,70.8
2022-12-11T02:30:51.637Z,70.7
2022-12-11T02:31:51.846Z,70.7
2022-12-11T02:32:51.645Z,70.7
2022-12-11T02:33:51.657Z,70.7
2022-12-11T02:34:51.660Z,70.8
2022-12-11T02:35:51.670Z,70.7
2022-12-11T02:36:51.672Z,70.5
2022-12-11T02:37:51.683Z,70.6
2022-12-11T02:38:51.692Z,70.7
2022-12-11T02:39:51.695Z,70.7
2022-12-11T02:40:51.708Z,70.8
2022-12-11T02:41:51.719Z,70.9
2022-12-11T02:42:51.729Z,70.8
2022-12-11T02:43:51.734Z,71.0
2022-12-11T02:44:51.737Z,71.2
2022-12-11T02:45:51.902Z,71.5
2022-12-11T02:46:51.759Z,71.5
2022-12-11T02:47:51.775Z,71.4
2022-12-11T02:48:51.780Z,71.2
2022-12-11T02:49:51.794Z,71.3
2022-12-11T02:50:51.804Z,71.4
2022-12-11T02:51:51.812Z,71.5
2022-12-11T02:52:51.818Z,71.6
2022-12-11T02:53:51.827Z,71.6
2022-12-11T02:54:51.846Z,71.5
2022-12-11T02:55:51.849Z,71.5
2022-12-11T02:56:51.869Z,71.5
2022-12-11T02:57:51.870Z,71.3
2022-12-11T02:58:58.971Z,71.3
2022-12-11T02:59:51.889Z,71.3
2022-12-11T03:00:51.908Z,71.3
2022-12-11T03:01:52.056Z,71.4
2022-12-11T03:02:52.147Z,71.3
2022-12-11T03:03:51.928Z,71.4
2022-12-11T03:04:51.941Z,71.5
2022-12-11T03:05:51.956Z,71.5
2022-12-11T03:06:51.992Z,71.5
2022-12-11T03:07:52.220Z,71.5
2022-12-11T03:08:52.048Z,71.4
2022-12-11T03:09:52.032Z,71.3
2022-12-11T03:10:52.040Z,71.3
2022-12-11T03:11:52.042Z,71.1
2022-12-11T03:12:54.274Z,71.0
2022-12-11T03:13:52.054Z,71.1
2022-12-11T03:14:52.087Z,71.0
2022-12-11T03:15:52.059Z,71.3
2022-12-11T03:16:52.102Z,71.3
2022-12-11T03:17:52.102Z,71.3
2022-12-11T03:18:52.137Z,71.2
2022-12-11T03:19:52.126Z,71.1
2022-12-11T03:20:52.119Z,71.2
2022-12-11T03:21:52.135Z,71.0
2022-12-11T03:22:52.143Z,71.2
2022-12-11T03:23:54.054Z,71.2
2022-12-11T03:24:52.186Z,71.3
2022-12-11T03:25:52.172Z,71.5
2022-12-11T03:27:01.035Z,71.4
2022-12-11T03:27:52.176Z,71.4
2022-12-11T03:28:52.179Z,71.5
2022-12-11T03:29:52.182Z,71.6
2022-12-11T03:30:52.503Z,71.5
2022-12-11T03:31:52.200Z,71.5
2022-12-11T03:32:52.202Z,71.5
2022-12-11T03:33:52.209Z,71.5
2022-12-11T03:34:58.655Z,71.5
2022-12-11T03:35:52.232Z,71.8
2022-12-11T03:36:52.235Z,71.3
2022-12-11T03:37:52.248Z,71.2
2022-12-11T03:38:52.252Z,71.1
2022-12-11T03:39:52.265Z,71.2
2022-12-11T03:40:52.275Z,71.3
2022-12-11T03:41:52.286Z,71.6
2022-12-11T03:42:52.301Z,71.8
2022-12-11T03:43:52.306Z,71.8
2022-12-11T03:44:52.320Z,71.7
2022-12-11T03:45:52.591Z,71.6
2022-12-11T03:46:52.333Z,71.8
2022-12-11T03:47:52.352Z,71.9
2022-12-11T03:48:52.354Z,71.8
2022-12-11T03:49:52.370Z,71.7
2022-12-11T03:50:52.373Z,71.7
2022-12-11T03:51:52.384Z,71.6
2022-12-11T03:52:52.391Z,71.5
2022-12-11T03:53:52.397Z,71.6
2022-12-11T03:54:52.410Z,71.8
2022-12-11T03:55:52.420Z,71.8
2022-12-11T03:56:52.429Z,71.9
2022-12-11T03:57:52.446Z,72.0
2022-12-11T03:58:52.448Z,71.9
2022-12-11T03:59:52.480Z,72.0
2022-12-11T04:00:52.473Z,71.9
2022-12-11T04:01:52.572Z,72.0
2022-12-11T04:02:52.498Z,72.4
2022-12-11T04:03:52.648Z,72.1
2022-12-11T04:04:52.524Z,72.1
2022-12-11T04:05:52.540Z,72.0
2022-12-11T04:06:52.547Z,72.0
2022-12-11T04:07:52.689Z,72.1
2022-12-11T04:08:52.564Z,71.9
2022-12-11T04:09:52.579Z,72.1
2022-12-11T04:10:52.577Z,72.0
2022-12-11T04:11:52.593Z,72.0
2022-12-11T04:12:52.800Z,72.3
2022-12-11T04:13:52.621Z,72.2
2022-12-11T04:14:52.626Z,72.3
2022-12-11T04:15:52.768Z,72.2
2022-12-11T04:16:52.653Z,72.2
2022-12-11T04:17:52.658Z,72.3
2022-12-11T04:18:52.666Z,72.4
2022-12-11T04:19:52.670Z,72.3
2022-12-11T04:20:52.677Z,72.5
2022-12-11T04:21:52.688Z,72.6
2022-12-11T04:22:52.695Z,72.5
2022-12-11T04:23:52.704Z,72.5
2022-12-11T04:24:52.714Z,72.5
2022-12-11T04:25:52.726Z,72.7
2022-12-11T04:26:52.729Z,72.7
2022-12-11T04:27:52.744Z,72.7
2022-12-11T04:28:52.755Z,72.6
2022-12-11T04:29:52.773Z,72.6
2022-12-11T04:30:52.953Z,72.2
2022-12-11T04:31:52.784Z,72.4
2022-12-11T04:32:52.797Z,72.2
2022-12-11T04:33:52.805Z,72.2
2022-12-11T04:34:52.806Z,72.3
2022-12-11T04:35:52.887Z,72.4
2022-12-11T04:36:52.832Z,72.2
2022-12-11T04:37:52.841Z,72.4
2022-12-11T04:38:52.860Z,72.4
2022-12-11T04:39:52.867Z,72.5
2022-12-11T04:40:52.874Z,72.5
2022-12-11T04:41:52.885Z,72.7
2022-12-11T04:42:52.893Z,72.8
2022-12-11T04:43:52.905Z,72.5
2022-12-11T04:44:52.915Z,72.5
2022-12-11T04:45:52.922Z,72.6
2022-12-11T04:46:53.058Z,72.4
2022-12-11T04:47:52.945Z,72.7
2022-12-11T04:48:58.261Z,72.8
2022-12-11T04:49:52.964Z,72.9
2022-12-11T04:50:52.990Z,72.8
2022-12-11T04:51:52.980Z,73.1
2022-12-11T04:52:52.993Z,73.0
2022-12-11T04:53:53.009Z,73.0
2022-12-11T04:54:53.019Z,73.2
2022-12-11T04:55:53.040Z,73.3
2022-12-11T04:56:53.044Z,73.4
2022-12-11T04:57:53.054Z,73.6
2022-12-11T04:58:53.064Z,73.8
2022-12-11T04:59:53.072Z,74.0
2022-12-11T05:00:53.102Z,74.3
2022-12-11T05:01:53.331Z,74.5
2022-12-11T05:02:53.260Z,75.0
2022-12-11T05:03:53.128Z,75.5
2022-12-11T05:04:53.137Z,75.7
2022-12-11T05:05:53.143Z,75.9
2022-12-11T05:06:53.159Z,76.1
2022-12-11T05:07:53.305Z,76.5
2022-12-11T05:08:53.185Z,76.7
2022-12-11T05:09:53.175Z,77.2
2022-12-11T05:10:53.188Z,77.3
2022-12-11T05:11:53.195Z,77.5
2022-12-11T05:12:53.212Z,77.6
2022-12-11T05:13:53.222Z,77.8
2022-12-11T05:14:53.304Z,78.3
2022-12-11T05:15:53.568Z,78.4
2022-12-11T05:16:53.288Z,78.5
2022-12-11T05:17:53.263Z,78.6
2022-12-11T05:18:53.271Z,78.7
2022-12-11T05:19:53.285Z,78.8
2022-12-11T05:20:53.296Z,78.9
2022-12-11T05:21:53.289Z,79.1
2022-12-11T05:22:53.297Z,79.3
2022-12-11T05:23:53.301Z,79.5
2022-12-11T05:24:53.320Z,79.5
2022-12-11T05:25:53.325Z,79.6
2022-12-11T05:26:53.340Z,79.8
2022-12-11T05:27:53.328Z,79.9
2022-12-11T05:28:53.394Z,79.8
2022-12-11T05:29:59.898Z,80.0
2022-12-11T05:30:53.511Z,80.0
2022-12-11T05:31:53.370Z,80.1
2022-12-11T05:32:53.389Z,80.1
2022-12-11T05:33:53.402Z,80.2
2022-12-11T05:34:53.415Z,80.2
2022-12-11T05:35:53.425Z,80.2
2022-12-11T05:36:53.426Z,80.3
2022-12-11T05:37:53.438Z,80.5
2022-12-11T05:38:53.455Z,80.6
2022-12-11T05:39:53.467Z,80.8
2022-12-11T05:40:53.464Z,81.1
2022-12-11T05:41:53.472Z,81.0
2022-12-11T05:42:53.475Z,81.1
2022-12-11T05:43:53.493Z,81.2
2022-12-11T05:44:53.510Z,81.1
2022-12-11T05:45:53.518Z,81.1
2022-12-11T05:46:53.728Z,81.0
2022-12-11T05:47:53.528Z,81.2
2022-12-11T05:48:53.532Z,81.2
2022-12-11T05:49:53.551Z,81.2
2022-12-11T05:50:53.562Z,81.2
2022-12-11T05:51:53.567Z,81.2
2022-12-11T05:52:53.587Z,81.2
2022-12-11T05:53:53.618Z,81.3
2022-12-11T05:54:53.601Z,81.6
2022-12-11T05:55:53.616Z,81.7
2022-12-11T05:56:53.612Z,81.6
2022-12-11T05:57:53.635Z,82.0
2022-12-11T05:58:53.638Z,81.9
2022-12-11T05:59:53.657Z,82.0
2022-12-11T06:00:53.654Z,81.9
2022-12-11T06:01:54.027Z,81.9
2022-12-11T06:02:54.054Z,81.9
2022-12-11T06:03:53.694Z,82.2
2022-12-11T06:04:53.693Z,82.0
2022-12-11T06:05:53.702Z,82.0
2022-12-11T06:06:53.715Z,82.0
2022-12-11T06:07:53.919Z,82.2
2022-12-11T06:08:53.746Z,82.3
2022-12-11T06:09:53.750Z,82.5
2022-12-11T06:10:53.757Z,82.5
2022-12-11T06:11:53.770Z,82.7
2022-12-11T06:12:53.772Z,82.9
2022-12-11T06:13:53.794Z,82.8
2022-12-11T06:14:53.782Z,82.9
2022-12-11T06:15:53.807Z,82.8
2022-12-11T06:16:53.850Z,82.7
2022-12-11T06:17:53.827Z,82.7
2022-12-11T06:18:58.880Z,82.6
2022-12-11T06:19:53.841Z,82.6
2022-12-11T06:20:53.878Z,82.8
2022-12-11T06:21:53.867Z,83.0
2022-12-11T06:22:53.870Z,82.9
2022-12-11T06:23:53.875Z,82.9
2022-12-11T06:24:53.895Z,83.2
2022-12-11T06:25:54.052Z,83.3
2022-12-11T06:26:53.919Z,83.2
2022-12-11T06:27:53.928Z,83.3
2022-12-11T06:28:53.942Z,82.8
2022-12-11T06:29:53.972Z,82.8
2022-12-11T06:30:53.977Z,83.0
2022-12-11T06:31:54.199Z,83.2
2022-12-11T06:32:53.986Z,83.2
2022-12-11T06:33:54.007Z,83.3
2022-12-11T06:34:54.011Z,83.3
2022-12-11T06:35:54.031Z,83.3
2022-12-11T06:36:54.031Z,83.3
2022-12-11T06:37:54.040Z,83.2
2022-12-11T06:38:54.054Z,83.3
2022-12-11T06:39:54.060Z,83.4
2022-12-11T06:40:54.078Z,83.4
2022-12-11T06:41:54.093Z,83.4
2022-12-11T06:42:54.103Z,83.3
2022-12-11T06:43:54.129Z,83.3
2022-12-11T06:44:54.131Z,83.4
2022-12-11T06:46:04.436Z,83.1
2022-12-11T06:46:54.140Z,83.2
2022-12-11T06:47:54.151Z,83.3
2022-12-11T06:48:54.158Z,83.4
2022-12-11T06:49:54.175Z,83.4
2022-12-11T06:50:54.187Z,83.4
2022-12-11T06:51:54.210Z,83.4
2022-12-11T06:52:54.195Z,83.5
2022-12-11T06:53:54.207Z,83.5
2022-12-11T06:54:54.215Z,83.5
2022-12-11T06:55:54.217Z,83.5
2022-12-11T06:56:54.226Z,83.6
2022-12-11T06:57:54.230Z,83.6
2022-12-11T06:58:54.244Z,83.5
2022-12-11T06:59:54.245Z,83.3
2022-12-11T07:00:54.464Z,83.4
2022-12-11T07:01:54.573Z,83.5
2022-12-11T07:02:54.271Z,83.4
2022-12-11T07:03:54.277Z,83.4
2022-12-11T07:04:55.613Z,83.6
2022-12-11T07:05:54.299Z,83.7
2022-12-11T07:06:54.315Z,83.7
2022-12-11T07:07:54.461Z,83.6
2022-12-11T07:08:54.340Z,83.4
2022-12-11T07:09:54.350Z,83.5
2022-12-11T07:10:54.362Z,83.6
2022-12-11T07:11:54.373Z,83.4
2022-12-11T07:12:54.380Z,83.5
2022-12-11T07:13:54.386Z,83.5
2022-12-11T07:14:54.400Z,83.5
2022-12-11T07:15:54.431Z,83.6
2022-12-11T07:16:54.519Z,83.5
2022-12-11T07:17:54.428Z,83.5
2022-12-11T07:18:54.440Z,83.6
2022-12-11T07:19:54.453Z,83.6
2022-12-11T07:20:54.461Z,83.6
2022-12-11T07:21:54.466Z,83.6
2022-12-11T07:22:54.471Z,83.6
2022-12-11T07:23:54.474Z,83.6
2022-12-11T07:24:54.497Z,83.6
2022-12-11T07:25:54.539Z,83.7
2022-12-11T07:26:54.515Z,83.6
2022-12-11T07:27:54.532Z,83.6
2022-12-11T07:28:54.533Z,83.6
2022-12-11T07:29:54.536Z,83.4
2022-12-11T07:30:54.558Z,83.5
2022-12-11T07:31:55.022Z,83.5
2022-12-11T07:32:54.734Z,83.4
2022-12-11T07:33:54.597Z,83.2
2022-12-11T07:34:54.595Z,83.4
2022-12-11T07:35:54.617Z,83.4
2022-12-11T07:36:54.616Z,83.4
2022-12-11T07:37:54.636Z,83.3
2022-12-11T07:38:54.646Z,83.0
2022-12-11T07:39:54.657Z,83.1
2022-12-11T07:40:54.683Z,83.3
2022-12-11T07:41:54.701Z,83.4
2022-12-11T07:42:54.701Z,83.3
2022-12-11T07:43:54.714Z,83.2
2022-12-11T07:44:54.730Z,83.3
2022-12-11T07:45:54.885Z,83.2
2022-12-11T07:46:54.762Z,83.0
2022-12-11T07:47:54.760Z,83.2
2022-12-11T07:48:54.768Z,83.1
2022-12-11T07:49:54.770Z,83.1
2022-12-11T07:50:54.797Z,83.5
2022-12-11T07:51:54.793Z,83.6
2022-12-11T07:52:54.801Z,83.5
2022-12-11T07:53:54.802Z,82.6
2022-12-11T07:54:54.826Z,82.8
2022-12-11T07:55:54.847Z,83.2
2022-12-11T07:56:54.850Z,82.6
2022-12-11T07:57:54.864Z,83.0
2022-12-11T07:58:54.864Z,82.8
2022-12-11T07:59:54.877Z,81.3
2022-12-11T08:00:55.030Z,81.8
2022-12-11T08:01:55.138Z,81.9
2022-12-11T08:02:55.068Z,81.1
2022-12-11T08:03:54.913Z,81.3
2022-12-11T08:04:54.927Z,80.9
2022-12-11T08:05:54.945Z,81.4
2022-12-11T08:06:54.954Z,81.0
2022-12-11T08:07:55.134Z,81.3
2022-12-11T08:08:54.982Z,81.0
2022-12-11T08:09:54.982Z,80.9
2022-12-11T08:10:54.999Z,80.6
2022-12-11T08:11:55.012Z,80.9
2022-12-11T08:12:55.017Z,81.1
2022-12-11T08:13:55.032Z,81.1
2022-12-11T08:14:55.034Z,81.1
2022-12-11T08:15:55.096Z,81.1
2022-12-11T08:16:55.295Z,80.8
2022-12-11T08:17:55.069Z,80.9
2022-12-11T08:18:55.088Z,81.1
2022-12-11T08:19:55.095Z,81.2
2022-12-11T08:20:55.109Z,81.2
2022-12-11T08:21:55.120Z,81.1
2022-12-11T08:22:59.544Z,81.1
2022-12-11T08:23:55.143Z,81.3
2022-12-11T08:24:55.157Z,81.3
2022-12-11T08:25:55.162Z,81.1
2022-12-11T08:26:55.176Z,81.2
2022-12-11T08:27:55.201Z,81.4
2022-12-11T08:28:55.230Z,81.2
2022-12-11T08:29:55.227Z,81.2
2022-12-11T08:30:55.378Z,81.2
2022-12-11T08:31:55.240Z,81.3
2022-12-11T08:32:55.260Z,81.4
2022-12-11T08:33:55.272Z,81.5
2022-12-11T08:34:55.280Z,81.5
2022-12-11T08:35:55.289Z,81.7
2022-12-11T08:36:55.288Z,81.8
2022-12-11T08:37:55.300Z,81.8
2022-12-11T08:38:55.310Z,81.7
2022-12-11T08:39:55.315Z,81.7
2022-12-11T08:40:55.327Z,81.8
2022-12-11T08:41:55.350Z,81.8
2022-12-11T08:42:55.362Z,81.7
2022-12-11T08:43:55.653Z,81.5
2022-12-11T08:44:55.377Z,81.4
2022-12-11T08:45:55.510Z,81.2
2022-12-11T08:46:55.403Z,81.3
2022-12-11T08:47:55.419Z,81.4
2022-12-11T08:48:55.446Z,81.3
2022-12-11T08:49:55.434Z,81.3
2022-12-11T08:50:55.447Z,81.4
2022-12-11T08:51:55.467Z,81.3
2022-12-11T08:52:55.475Z,81.4
2022-12-11T08:53:55.482Z,81.4
2022-12-11T08:54:55.502Z,81.0
2022-12-11T08:55:55.511Z,81.2
2022-12-11T08:56:58.550Z,81.3
2022-12-11T08:57:56.543Z,81.3
2022-12-11T08:58:55.543Z,81.2
2022-12-11T08:59:55.580Z,81.0
2022-12-11T09:00:55.805Z,81.2
2022-12-11T09:01:55.578Z,81.0
2022-12-11T09:02:55.769Z,81.0
2022-12-11T09:03:55.620Z,80.9
2022-12-11T09:04:55.608Z,81.1
2022-12-11T09:05:55.637Z,81.0
2022-12-11T09:06:55.637Z,80.8
2022-12-11T09:07:55.729Z,80.5
2022-12-11T09:08:55.656Z,80.6
2022-12-11T09:09:55.685Z,80.6
2022-12-11T09:10:55.673Z,80.8
2022-12-11T09:11:55.685Z,81.2
2022-12-11T09:12:55.691Z,81.1
2022-12-11T09:13:55.724Z,81.1
2022-12-11T09:14:55.714Z,81.2
2022-12-11T09:15:55.840Z,81.5
2022-12-11T09:16:55.735Z,81.5
2022-12-11T09:17:55.748Z,81.7
2022-12-11T09:18:55.758Z,81.8
2022-12-11T09:19:55.775Z,81.9
2022-12-11T09:20:55.779Z,81.9
2022-12-11T09:21:55.790Z,81.8
2022-12-11T09:22:55.799Z,81.8
2022-12-11T09:23:55.817Z,81.8
2022-12-11T09:24:55.939Z,81.4
2022-12-11T09:25:55.842Z,81.3
2022-12-11T09:26:55.903Z,81.1
2022-12-11T09:27:55.865Z,81.3
2022-12-11T09:28:55.879Z,81.2
2022-12-11T09:29:55.906Z,81.2
2022-12-11T09:30:56.030Z,81.0
2022-12-11T09:31:55.910Z,80.8
2022-12-11T09:32:55.917Z,80.6
2022-12-11T09:33:55.945Z,80.4
2022-12-11T09:34:55.960Z,80.4
2022-12-11T09:35:55.944Z,80.4
2022-12-11T09:36:55.956Z,80.2
2022-12-11T09:37:55.954Z,80.3
2022-12-11T09:38:55.964Z,80.1
2022-12-11T09:39:55.978Z,80.2
2022-12-11T09:40:55.982Z,80.0
2022-12-11T09:41:56.006Z,80.0
2022-12-11T09:42:56.010Z,79.7
2022-12-11T09:43:56.027Z,80.1
2022-12-11T09:44:56.036Z,80.4
2022-12-11T09:45:56.242Z,80.4
2022-12-11T09:46:56.161Z,80.4
2022-12-11T09:47:56.056Z,80.0
2022-12-11T09:48:56.083Z,80.3
2022-12-11T09:49:56.072Z,80.1
2022-12-11T09:50:56.078Z,80.2
2022-12-11T09:51:56.096Z,80.2
2022-12-11T09:52:56.104Z,79.8
2022-12-11T09:53:56.111Z,79.6
2022-12-11T09:54:56.129Z,79.8
2022-12-11T09:55:56.152Z,79.8
2022-12-11T09:56:56.165Z,79.8
2022-12-11T09:57:56.178Z,79.6
2022-12-11T09:58:56.176Z,79.2
2022-12-11T10:00:06.017Z,79.0
2022-12-11T10:00:56.201Z,78.7
2022-12-11T10:01:56.219Z,78.4
2022-12-11T10:02:56.481Z,78.4
2022-12-11T10:03:56.241Z,78.4
2022-12-11T10:04:56.246Z,78.4
2022-12-11T10:06:05.327Z,78.4
2022-12-11T10:06:56.272Z,78.2
2022-12-11T10:07:56.395Z,78.3
2022-12-11T10:08:56.328Z,78.3
2022-12-11T10:09:56.314Z,78.3
2022-12-11T10:10:56.339Z,78.2
2022-12-11T10:11:57.274Z,78.3
2022-12-11T10:12:56.340Z,78.3
2022-12-11T10:13:56.342Z,78.4
2022-12-11T10:14:56.463Z,78.5
2022-12-11T10:15:56.685Z,78.5
2022-12-11T10:16:56.374Z,78.4
2022-12-11T10:18:05.539Z,78.6
2022-12-11T10:18:56.393Z,78.7
2022-12-11T10:19:56.414Z,78.7
2022-12-11T10:20:56.432Z,78.6
2022-12-11T10:21:56.446Z,78.3
2022-12-11T10:22:56.439Z,78.0
2022-12-11T10:23:56.469Z,77.8
2022-12-11T10:25:12.640Z,77.6
2022-12-11T10:25:56.671Z,77.6
2022-12-11T10:26:56.474Z,77.7
2022-12-11T10:27:56.489Z,77.6
2022-12-11T10:28:56.498Z,77.4
2022-12-11T10:29:56.507Z,77.4
2022-12-11T10:30:56.648Z,77.5
2022-12-11T10:31:56.534Z,77.3
2022-12-11T10:32:56.554Z,77.0
2022-12-11T10:33:56.546Z,77.1
2022-12-11T10:34:56.555Z,77.3
2022-12-11T10:35:56.919Z,77.3
2022-12-11T10:37:00.838Z,77.3
2022-12-11T10:37:56.600Z,77.3
2022-12-11T10:38:56.608Z,77.4
2022-12-11T10:39:56.623Z,77.4
2022-12-11T10:40:56.641Z,77.4
2022-12-11T10:41:56.630Z,77.4
2022-12-11T10:42:56.642Z,77.4
2022-12-11T10:43:56.654Z,77.2
2022-12-11T10:44:56.666Z,77.2
2022-12-11T10:45:57.263Z,77.0
2022-12-11T10:46:56.698Z,76.8
2022-12-11T10:47:56.711Z,76.7
2022-12-11T10:48:56.712Z,76.4
2022-12-11T10:49:56.730Z,76.4
2022-12-11T10:50:56.738Z,76.2
2022-12-11T10:51:56.753Z,76.4
2022-12-11T10:52:56.750Z,75.9
2022-12-11T10:53:56.768Z,75.8
2022-12-11T10:54:56.776Z,76.1
2022-12-11T10:55:56.783Z,76.0
2022-12-11T10:56:56.797Z,75.9
2022-12-11T10:57:56.808Z,76.1
2022-12-11T10:58:56.807Z,76.0
2022-12-11T10:59:56.821Z,76.0
2022-12-11T11:00:56.835Z,76.2
2022-12-11T11:01:56.984Z,76.0
2022-12-11T11:02:56.998Z,76.1
2022-12-11T11:03:56.877Z,76.2
2022-12-11T11:04:56.892Z,76.1
2022-12-11T11:05:56.892Z,76.2
2022-12-11T11:06:56.914Z,76.1
2022-12-11T11:07:57.115Z,76.2
2022-12-11T11:08:56.945Z,76.0
2022-12-11T11:09:56.953Z,76.0
2022-12-11T11:10:56.958Z,75.7
2022-12-11T11:11:56.975Z,75.7
2022-12-11T11:12:56.991Z,75.7
2022-12-11T11:13:57.005Z,75.3
2022-12-11T11:14:57.018Z,75.6
2022-12-11T11:15:57.551Z,75.6
2022-12-11T11:16:57.050Z,75.6
2022-12-11T11:17:57.062Z,75.7
2022-12-11T11:18:57.056Z,75.8
2022-12-11T11:19:57.078Z,75.6
2022-12-11T11:20:57.087Z,75.4
2022-12-11T11:21:57.092Z,75.6
2022-12-11T11:22:57.122Z,75.3
2022-12-11T11:23:57.137Z,74.8
2022-12-11T11:24:57.139Z,74.3
2022-12-11T11:25:57.150Z,74.7
2022-12-11T11:27:14.543Z,74.9
2022-12-11T11:27:57.176Z,74.7
2022-12-11T11:28:57.194Z,74.8
2022-12-11T11:29:57.196Z,74.5
2022-12-11T11:30:57.364Z,73.8
2022-12-11T11:31:57.223Z,74.3
2022-12-11T11:32:57.240Z,74.3
2022-12-11T11:33:57.258Z,74.5
2022-12-11T11:34:57.312Z,74.7
2022-12-11T11:35:57.262Z,74.9
2022-12-11T11:36:57.283Z,74.8
2022-12-11T11:37:57.305Z,75.0
2022-12-11T11:38:57.314Z,74.3
2022-12-11T11:39:57.337Z,74.7
2022-12-11T11:41:11.638Z,74.6
2022-12-11T11:41:57.373Z,74.3
2022-12-11T11:42:57.375Z,74.3
2022-12-11T11:43:57.396Z,74.4
2022-12-11T11:44:57.409Z,74.5
2022-12-11T11:45:57.421Z,74.6
2022-12-11T11:46:57.569Z,74.2
2022-12-11T11:47:57.441Z,74.7
2022-12-11T11:48:57.443Z,73.6
2022-12-11T11:49:57.463Z,72.8
2022-12-11T11:50:57.480Z,72.6
2022-12-11T11:51:57.489Z,72.8
2022-12-11T11:52:57.500Z,72.3
2022-12-11T11:53:57.517Z,72.5
2022-12-11T11:54:57.529Z,72.4
2022-12-11T11:55:57.532Z,72.5
2022-12-11T11:56:57.540Z,71.9
2022-12-11T11:57:57.555Z,71.9
2022-12-11T11:58:57.573Z,71.7
2022-12-11T11:59:57.576Z,71.8
2022-12-11T12:00:57.581Z,71.6
2022-12-11T12:01:57.599Z,72.2
2022-12-11T12:02:57.762Z,72.0
2022-12-11T12:03:57.630Z,72.4
2022-12-11T12:04:57.644Z,72.1
2022-12-11T12:05:57.650Z,72.2
2022-12-11T12:06:57.665Z,71.9
2022-12-11T12:07:57.766Z,71.8
2022-12-11T12:08:57.690Z,71.3
2022-12-11T12:09:57.837Z,71.3
2022-12-11T12:10:57.710Z,71.4
2022-12-11T12:11:57.722Z,71.7
2022-12-11T12:12:57.740Z,71.4
2022-12-11T12:13:57.772Z,71.7
2022-12-11T12:14:57.782Z,71.1
2022-12-11T12:15:58.096Z,70.8
2022-12-11T12:16:58.152Z,71.3
2022-12-11T12:17:57.837Z,71.0
2022-12-11T12:18:57.856Z,71.2
2022-12-11T12:19:57.870Z,71.3
2022-12-11T12:20:57.903Z,71.3
2022-12-11T12:21:57.894Z,71.3
2022-12-11T12:22:57.903Z,71.1
2022-12-11T12:23:57.931Z,71.0
2022-12-11T12:24:57.926Z,70.6
2022-12-11T12:25:57.948Z,70.4
2022-12-11T12:26:57.964Z,70.5
2022-12-11T12:27:57.980Z,70.3
2022-12-11T12:28:57.992Z,70.0
2022-12-11T12:29:58.001Z,70.1
2022-12-11T12:30:58.004Z,69.5
2022-12-11T12:31:58.219Z,69.2
2022-12-11T12:32:58.023Z,69.1
2022-12-11T12:33:58.036Z,68.1
2022-12-11T12:34:58.045Z,67.5
2022-12-11T12:36:07.418Z,67.5
2022-12-11T12:36:58.083Z,67.5
2022-12-11T12:37:58.092Z,66.9
2022-12-11T12:38:58.101Z,66.7
2022-12-11T12:39:58.105Z,66.6
2022-12-11T12:40:58.138Z,65.8
2022-12-11T12:42:08.177Z,64.9
2022-12-11T12:42:58.140Z,65.1
2022-12-11T12:43:58.292Z,64.2
2022-12-11T12:44:58.171Z,64.4
2022-12-11T12:45:58.275Z,64.1
2022-12-11T12:46:58.177Z,63.6
2022-12-11T12:47:58.196Z,63.9
2022-12-11T12:48:58.213Z,63.4
2022-12-11T12:49:58.234Z,63.4
2022-12-11T12:50:58.223Z,63.0
2022-12-11T12:51:58.238Z,62.8
2022-12-11T12:52:58.238Z,62.7
2022-12-11T12:53:58.243Z,62.8
2022-12-11T12:54:58.253Z,62.1
2022-12-11T12:55:58.268Z,62.2
2022-12-11T12:56:58.277Z,62.1
2022-12-11T12:57:58.296Z,62.5
2022-12-11T12:58:58.308Z,62.6
2022-12-11T12:59:58.320Z,62.9
2022-12-11T13:00:58.485Z,62.5
2022-12-11T13:01:58.519Z,62.4
2022-12-11T13:02:58.357Z,62.6
2022-12-11T13:03:58.366Z,62.3
2022-12-11T13:04:58.602Z,62.6
2022-12-11T13:05:58.409Z,62.2
2022-12-11T13:06:58.419Z,62.4
2022-12-11T13:07:58.681Z,62.7
2022-12-11T13:08:58.440Z,62.1
2022-12-11T13:09:58.451Z,61.9
2022-12-11T13:10:58.465Z,62.5
2022-12-11T13:11:58.484Z,62.0
2022-12-11T13:12:58.503Z,62.0
2022-12-11T13:13:58.520Z,62.1
2022-12-11T13:14:58.528Z,62.1
2022-12-11T13:15:58.665Z,61.9
2022-12-11T13:16:58.551Z,61.8
2022-12-11T13:17:58.597Z,62.1
2022-12-11T13:18:58.574Z,62.1
2022-12-11T13:19:58.593Z,62.4
2022-12-11T13:20:58.604Z,62.1
2022-12-11T13:21:58.618Z,62.4
2022-12-11T13:22:58.628Z,62.3
2022-12-11T13:23:58.651Z,62.1
2022-12-11T13:24:58.674Z,62.5
2022-12-11T13:25:58.681Z,62.5
2022-12-11T13:26:58.691Z,62.3
2022-12-11T13:27:58.698Z,62.8
2022-12-11T13:28:58.719Z,62.8
2022-12-11T13:29:58.721Z,63.0
2022-12-11T13:30:58.736Z,63.3
2022-12-11T13:31:58.894Z,63.0
2022-12-11T13:32:58.760Z,62.5
2022-12-11T13:33:58.775Z,62.3
2022-12-11T13:34:58.799Z,62.4
2022-12-11T13:35:58.805Z,62.9